sensor_id;sensor_type;location;lat;lon;timestamp;pressure;altitude;pressure_sealevel;temperature;humidity
70302;BME280;57706;56.326;43.882;2023-08-30T00:00:58;100493.44;;;13.53;72.86
70302;BME280;57706;56.326;43.882;2023-08-30T00:03:25;100496.91;;;13.54;72.39
70302;BME280;57706;56.326;43.882;2023-08-30T00:05:51;100490.59;;;13.55;72.13
70302;BME280;57706;56.326;43.882;2023-08-30T00:08:17;100492.91;;;13.58;72.06
70302;BME280;57706;56.326;43.882;2023-08-30T00:10:48;100491.63;;;13.54;72.34
70302;BME280;57706;56.326;43.882;2023-08-30T00:13:15;100487.97;;;13.55;71.96
70302;BME280;57706;56.326;43.882;2023-08-30T00:15:41;100486.97;;;13.56;71.71
70302;BME280;57706;56.326;43.882;2023-08-30T00:18:07;100492.25;;;13.56;71.59
70302;BME280;57706;56.326;43.882;2023-08-30T00:20:32;100492.25;;;13.56;71.70
70302;BME280;57706;56.326;43.882;2023-08-30T00:22:59;100487.63;;;13.58;71.18
70302;BME280;57706;56.326;43.882;2023-08-30T00:25:25;100496.53;;;13.57;71.06
70302;BME280;57706;56.326;43.882;2023-08-30T00:27:51;100489.59;;;13.56;71.63
70302;BME280;57706;56.326;43.882;2023-08-30T00:30:17;100488.97;;;13.54;71.91
70302;BME280;57706;56.326;43.882;2023-08-30T00:32:43;100486.50;;;13.52;71.96
70302;BME280;57706;56.326;43.882;2023-08-30T00:35:11;100480.81;;;13.40;72.23
70302;BME280;57706;56.326;43.882;2023-08-30T00:37:36;100483.28;;;13.42;72.46
70302;BME280;57706;56.326;43.882;2023-08-30T00:40:02;100480.47;;;13.43;72.13
70302;BME280;57706;56.326;43.882;2023-08-30T00:42:32;100474.19;;;13.44;72.28
70302;BME280;57706;56.326;43.882;2023-08-30T00:44:58;100474.13;;;13.53;70.84
70302;BME280;57706;56.326;43.882;2023-08-30T00:47:24;100477.63;;;13.68;69.25
70302;BME280;57706;56.326;43.882;2023-08-30T00:49:51;100487.97;;;13.55;69.85
70302;BME280;57706;56.326;43.882;2023-08-30T00:52:17;100498.31;;;13.41;70.26
70302;BME280;57706;56.326;43.882;2023-08-30T00:54:44;100499.34;;;13.32;71.33
70302;BME280;57706;56.326;43.882;2023-08-30T00:57:10;100494.06;;;13.32;71.28
70302;BME280;57706;56.326;43.882;2023-08-30T00:59:37;100493.81;;;13.27;72.00
70302;BME280;57706;56.326;43.882;2023-08-30T01:02:04;100500.88;;;13.26;70.82
70302;BME280;57706;56.326;43.882;2023-08-30T01:04:34;100500.88;;;13.26;70.72
70302;BME280;57706;56.326;43.882;2023-08-30T01:07:00;100506.16;;;13.26;70.83
70302;BME280;57706;56.326;43.882;2023-08-30T01:09:27;100494.81;;;13.26;71.01
70302;BME280;57706;56.326;43.882;2023-08-30T01:12:17;100509.34;;;13.21;71.68
70302;BME280;57706;56.326;43.882;2023-08-30T01:14:52;100514.28;;;13.25;71.45
70302;BME280;57706;56.326;43.882;2023-08-30T01:17:21;100506.63;;;13.30;71.46
70302;BME280;57706;56.326;43.882;2023-08-30T01:20:00;100507.28;;;13.32;71.56
70302;BME280;57706;56.326;43.882;2023-08-30T01:25:31;100514.38;;;13.31;70.89
70302;BME280;57706;56.326;43.882;2023-08-30T01:28:03;100511.56;;;13.33;70.73
70302;BME280;57706;56.326;43.882;2023-08-30T01:30:34;100511.22;;;13.36;71.36
70302;BME280;57706;56.326;43.882;2023-08-30T01:33:03;100518.13;;;13.37;71.20
70302;BME280;57706;56.326;43.882;2023-08-30T01:35:31;100519.75;;;13.38;71.23
70302;BME280;57706;56.326;43.882;2023-08-30T01:38:02;100510.69;;;13.41;71.14
70302;BME280;57706;56.326;43.882;2023-08-30T01:40:31;100514.28;;;13.48;70.29
70302;BME280;57706;56.326;43.882;2023-08-30T01:42:58;100514.47;;;13.38;69.95
70302;BME280;57706;56.326;43.882;2023-08-30T01:45:24;100517.09;;;13.46;68.82
70302;BME280;57706;56.326;43.882;2023-08-30T01:47:52;100513.09;;;13.51;68.74
70302;BME280;57706;56.326;43.882;2023-08-30T01:50:19;100511.56;;;13.33;69.67
70302;BME280;57706;56.326;43.882;2023-08-30T01:52:45;100511.91;;;13.30;69.83
70302;BME280;57706;56.326;43.882;2023-08-30T01:55:13;100517.19;;;13.30;70.14
70302;BME280;57706;56.326;43.882;2023-08-30T01:57:39;100513.38;;;13.32;70.12
70302;BME280;57706;56.326;43.882;2023-08-30T02:00:06;100521.31;;;13.32;70.82
70302;BME280;57706;56.326;43.882;2023-08-30T02:02:42;100521.78;;;13.36;70.99
70302;BME280;57706;56.326;43.882;2023-08-30T02:05:08;100517.75;;;13.40;70.64
70302;BME280;57706;56.326;43.882;2023-08-30T02:07:50;100523.72;;;13.42;70.42
70302;BME280;57706;56.326;43.882;2023-08-30T02:10:22;100533.25;;;13.43;70.25
70302;BME280;57706;56.326;43.882;2023-08-30T02:12:50;100533.25;;;13.43;70.71
70302;BME280;57706;56.326;43.882;2023-08-30T02:15:18;100541.16;;;13.52;70.53
70302;BME280;57706;56.326;43.882;2023-08-30T02:17:47;100538.44;;;13.60;69.41
70302;BME280;57706;56.326;43.882;2023-08-30T02:20:13;100533.78;;;13.62;69.77
70302;BME280;57706;56.326;43.882;2023-08-30T02:22:39;100532.44;;;13.66;69.41
70302;BME280;57706;56.326;43.882;2023-08-30T02:25:06;100525.88;;;13.62;69.98
70302;BME280;57706;56.326;43.882;2023-08-30T02:27:34;100528.22;;;13.57;70.15
70302;BME280;57706;56.326;43.882;2023-08-30T02:30:03;100529.81;;;13.66;69.10
70302;BME280;57706;56.326;43.882;2023-08-30T02:32:33;100534.72;;;13.69;68.13
70302;BME280;57706;56.326;43.882;2023-08-30T02:34:59;100538.63;;;13.73;68.07
70302;BME280;57706;56.326;43.882;2023-08-30T02:37:25;100541.38;;;13.80;68.39
70302;BME280;57706;56.326;43.882;2023-08-30T02:39:51;100534.56;;;13.86;68.55
70302;BME280;57706;56.326;43.882;2023-08-30T02:42:17;100540.94;;;13.92;68.34
70302;BME280;57706;56.326;43.882;2023-08-30T02:44:43;100544.22;;;13.94;67.93
70302;BME280;57706;56.326;43.882;2023-08-30T02:47:08;100542.03;;;13.97;67.68
70302;BME280;57706;56.326;43.882;2023-08-30T02:49:34;100540.31;;;14.04;67.69
70302;BME280;57706;56.326;43.882;2023-08-30T02:52:00;100543.22;;;14.10;68.33
70302;BME280;57706;56.326;43.882;2023-08-30T02:54:26;100544.16;;;14.17;66.68
70302;BME280;57706;56.326;43.882;2023-08-30T02:56:51;100548.06;;;14.21;66.99
70302;BME280;57706;56.326;43.882;2023-08-30T02:59:17;100545.16;;;14.16;66.90
70302;BME280;57706;56.326;43.882;2023-08-30T03:01:44;100540.22;;;14.13;67.43
70302;BME280;57706;56.326;43.882;2023-08-30T03:04:12;100542.22;;;14.26;66.48
70302;BME280;57706;56.326;43.882;2023-08-30T03:06:38;100546.69;;;14.25;66.52
70302;BME280;57706;56.326;43.882;2023-08-30T03:09:04;100541.03;;;14.28;66.50
70302;BME280;57706;56.326;43.882;2023-08-30T03:11:34;100529.56;;;14.21;67.28
70302;BME280;57706;56.326;43.882;2023-08-30T03:14:01;100541.75;;;14.22;66.94
70302;BME280;57706;56.326;43.882;2023-08-30T03:16:27;100533.66;;;14.24;66.49
70302;BME280;57706;56.326;43.882;2023-08-30T03:18:54;100531.63;;;14.26;66.03
70302;BME280;57706;56.326;43.882;2023-08-30T03:21:20;100534.41;;;14.32;65.72
70302;BME280;57706;56.326;43.882;2023-08-30T03:23:45;100542.75;;;14.51;65.30
70302;BME280;57706;56.326;43.882;2023-08-30T03:26:13;100538.47;;;14.50;64.98
70302;BME280;57706;56.326;43.882;2023-08-30T03:28:40;100535.06;;;14.71;64.55
70302;BME280;57706;56.326;43.882;2023-08-30T03:31:13;100541.78;;;14.89;62.97
70302;BME280;57706;56.326;43.882;2023-08-30T03:33:40;100541.69;;;15.19;62.61
70302;BME280;57706;56.326;43.882;2023-08-30T03:36:09;100537.38;;;15.40;61.61
70302;BME280;57706;56.326;43.882;2023-08-30T03:38:36;100535.84;;;15.52;60.92
70302;BME280;57706;56.326;43.882;2023-08-30T03:41:03;100535.34;;;15.71;60.60
70302;BME280;57706;56.326;43.882;2023-08-30T03:43:32;100530.53;;;15.81;60.80
70302;BME280;57706;56.326;43.882;2023-08-30T03:46:00;100535.69;;;15.89;60.25
70302;BME280;57706;56.326;43.882;2023-08-30T03:48:29;100533.56;;;16.00;60.03
70302;BME280;57706;56.326;43.882;2023-08-30T03:50:56;100534.13;;;15.95;60.16
70302;BME280;57706;56.326;43.882;2023-08-30T03:53:22;100530.19;;;16.19;60.02
70302;BME280;57706;56.326;43.882;2023-08-30T03:55:49;100531.88;;;16.34;59.17
70302;BME280;57706;56.326;43.882;2023-08-30T03:58:15;100539.69;;;16.42;58.72
70302;BME280;57706;56.326;43.882;2023-08-30T04:00:41;100530.69;;;16.43;58.50
70302;BME280;57706;56.326;43.882;2023-08-30T04:03:09;100534.31;;;16.29;58.50
70302;BME280;57706;56.326;43.882;2023-08-30T04:05:36;100535.31;;;16.28;58.46
70302;BME280;57706;56.326;43.882;2023-08-30T04:08:03;100531.34;;;16.10;58.93
70302;BME280;57706;56.326;43.882;2023-08-30T04:10:29;100535.19;;;16.01;59.14
70302;BME280;57706;56.326;43.882;2023-08-30T04:12:56;100548.59;;;15.92;59.44
70302;BME280;57706;56.326;43.882;2023-08-30T04:15:22;100549.72;;;15.83;59.94
70302;BME280;57706;56.326;43.882;2023-08-30T04:17:47;100551.94;;;15.51;60.91
70302;BME280;57706;56.326;43.882;2023-08-30T04:20:13;100551.66;;;15.46;61.12
70302;BME280;57706;56.326;43.882;2023-08-30T04:22:39;100553.06;;;15.41;61.62
70302;BME280;57706;56.326;43.882;2023-08-30T04:25:05;100546.78;;;15.43;61.09
70302;BME280;57706;56.326;43.882;2023-08-30T04:27:33;100552.44;;;15.39;61.53
70302;BME280;57706;56.326;43.882;2023-08-30T04:29:59;100558.41;;;15.48;61.01
70302;BME280;57706;56.326;43.882;2023-08-30T04:32:24;100549.38;;;15.64;60.60
70302;BME280;57706;56.326;43.882;2023-08-30T04:34:50;100556.22;;;15.80;60.38
70302;BME280;57706;56.326;43.882;2023-08-30T04:37:16;100548.41;;;15.94;58.82
70302;BME280;57706;56.326;43.882;2023-08-30T04:39:41;100554.59;;;16.08;58.71
70302;BME280;57706;56.326;43.882;2023-08-30T04:42:07;100550.50;;;16.05;58.52
70302;BME280;57706;56.326;43.882;2023-08-30T04:44:33;100554.38;;;15.81;59.19
70302;BME280;57706;56.326;43.882;2023-08-30T04:46:59;100551.31;;;16.06;58.91
70302;BME280;57706;56.326;43.882;2023-08-30T04:49:25;100552.41;;;16.18;58.25
70302;BME280;57706;56.326;43.882;2023-08-30T04:51:51;100541.03;;;16.24;58.15
70302;BME280;57706;56.326;43.882;2023-08-30T04:54:17;100547.41;;;16.37;57.93
70302;BME280;57706;56.326;43.882;2023-08-30T04:56:43;100553.97;;;16.41;57.65
70302;BME280;57706;56.326;43.882;2023-08-30T04:59:10;100554.81;;;16.48;57.98
70302;BME280;57706;56.326;43.882;2023-08-30T05:01:40;100559.78;;;16.65;57.58
70302;BME280;57706;56.326;43.882;2023-08-30T05:04:10;100555.38;;;16.99;56.85
70302;BME280;57706;56.326;43.882;2023-08-30T05:06:36;100547.97;;;16.88;56.94
70302;BME280;57706;56.326;43.882;2023-08-30T05:09:02;100541.91;;;17.01;56.88
70302;BME280;57706;56.326;43.882;2023-08-30T05:11:28;100548.44;;;16.98;55.42
70302;BME280;57706;56.326;43.882;2023-08-30T05:13:55;100559.25;;;16.90;55.30
70302;BME280;57706;56.326;43.882;2023-08-30T05:16:21;100548.00;;;16.95;55.22
70302;BME280;57706;56.326;43.882;2023-08-30T05:18:47;100545.81;;;17.12;54.66
70302;BME280;57706;56.326;43.882;2023-08-30T05:21:14;100549.72;;;17.50;54.76
70302;BME280;57706;56.326;43.882;2023-08-30T05:23:40;100548.88;;;17.89;53.17
70302;BME280;57706;56.326;43.882;2023-08-30T05:26:10;100544.34;;;18.24;53.04
70302;BME280;57706;56.326;43.882;2023-08-30T05:28:38;100546.16;;;18.76;51.90
70302;BME280;57706;56.326;43.882;2023-08-30T05:31:06;100539.75;;;19.22;49.49
70302;BME280;57706;56.326;43.882;2023-08-30T05:34:10;100547.88;;;19.78;48.24
70302;BME280;57706;56.326;43.882;2023-08-30T05:36:59;100553.28;;;19.46;48.55
70302;BME280;57706;56.326;43.882;2023-08-30T05:39:43;100558.66;;;17.96;51.09
70302;BME280;57706;56.326;43.882;2023-08-30T05:42:09;100554.19;;;17.83;51.39
70302;BME280;57706;56.326;43.882;2023-08-30T05:44:35;100551.13;;;17.93;51.85
70302;BME280;57706;56.326;43.882;2023-08-30T05:47:01;100558.31;;;17.79;51.30
70302;BME280;57706;56.326;43.882;2023-08-30T05:49:26;100552.97;;;17.79;52.11
70302;BME280;57706;56.326;43.882;2023-08-30T05:51:52;100554.00;;;17.84;52.37
70302;BME280;57706;56.326;43.882;2023-08-30T05:54:18;100564.00;;;17.96;52.34
70302;BME280;57706;56.326;43.882;2023-08-30T05:56:44;100565.00;;;17.95;52.97
70302;BME280;57706;56.326;43.882;2023-08-30T05:59:10;100560.50;;;18.02;51.41
70302;BME280;57706;56.326;43.882;2023-08-30T06:01:36;100567.84;;;18.27;50.95
70302;BME280;57706;56.326;43.882;2023-08-30T06:04:01;100566.09;;;18.53;49.80
70302;BME280;57706;56.326;43.882;2023-08-30T06:06:30;100571.53;;;18.78;49.88
70302;BME280;57706;56.326;43.882;2023-08-30T06:08:55;100570.94;;;19.15;49.26
70302;BME280;57706;56.326;43.882;2023-08-30T06:11:21;100573.59;;;19.47;48.11
70302;BME280;57706;56.326;43.882;2023-08-30T06:13:47;100579.00;;;19.85;47.45
70302;BME280;57706;56.326;43.882;2023-08-30T06:16:13;100567.19;;;20.18;46.09
70302;BME280;57706;56.326;43.882;2023-08-30T06:18:39;100560.19;;;20.54;45.23
70302;BME280;57706;56.326;43.882;2023-08-30T06:21:04;100558.06;;;20.94;44.37
70302;BME280;57706;56.326;43.882;2023-08-30T06:23:30;100552.25;;;21.39;43.92
70302;BME280;57706;56.326;43.882;2023-08-30T06:25:57;100555.97;;;21.98;41.91
70302;BME280;57706;56.326;43.882;2023-08-30T06:28:23;100553.50;;;22.61;40.59
70302;BME280;57706;56.326;43.882;2023-08-30T06:30:49;100550.03;;;23.24;38.73
70302;BME280;57706;56.326;43.882;2023-08-30T06:33:16;100545.22;;;26.18;35.01
70302;BME280;57706;56.326;43.882;2023-08-30T06:35:42;100535.94;;;31.67;24.73
70302;BME280;57706;56.326;43.882;2023-08-30T06:38:08;100520.63;;;35.48;21.28
70302;BME280;57706;56.326;43.882;2023-08-30T06:40:35;100514.16;;;38.46;18.34
70302;BME280;57706;56.326;43.882;2023-08-30T06:43:01;100514.44;;;40.68;14.92
70302;BME280;57706;56.326;43.882;2023-08-30T06:45:27;100506.97;;;42.00;14.64
70302;BME280;57706;56.326;43.882;2023-08-30T06:47:53;100496.97;;;43.05;13.40
70302;BME280;57706;56.326;43.882;2023-08-30T06:50:18;100496.00;;;44.38;12.40
70302;BME280;57706;56.326;43.882;2023-08-30T06:52:44;100483.75;;;44.54;12.13
70302;BME280;57706;56.326;43.882;2023-08-30T06:55:10;100487.94;;;45.71;11.49
70302;BME280;57706;56.326;43.882;2023-08-30T06:57:36;100483.53;;;46.45;10.96
70302;BME280;57706;56.326;43.882;2023-08-30T07:00:02;100475.69;;;47.59;10.41
70302;BME280;57706;56.326;43.882;2023-08-30T07:02:36;100470.81;;;47.98;9.19
70302;BME280;57706;56.326;43.882;2023-08-30T07:05:03;100477.53;;;46.50;10.03
70302;BME280;57706;56.326;43.882;2023-08-30T07:07:31;100479.16;;;47.98;9.95
70302;BME280;57706;56.326;43.882;2023-08-30T07:09:57;100481.88;;;45.95;10.01
70302;BME280;57706;56.326;43.882;2023-08-30T07:12:23;100468.13;;;47.59;9.79
70302;BME280;57706;56.326;43.882;2023-08-30T07:14:49;100464.44;;;48.96;8.99
70302;BME280;57706;56.326;43.882;2023-08-30T07:17:15;100462.91;;;49.72;7.53
70302;BME280;57706;56.326;43.882;2023-08-30T07:19:41;100459.56;;;50.14;7.77
70302;BME280;57706;56.326;43.882;2023-08-30T07:22:06;100458.69;;;50.80;7.61
70302;BME280;57706;56.326;43.882;2023-08-30T07:24:32;100463.09;;;50.81;7.33
70302;BME280;57706;56.326;43.882;2023-08-30T07:26:58;100468.59;;;50.68;7.10
70302;BME280;57706;56.326;43.882;2023-08-30T07:29:24;100460.53;;;51.30;7.06
70302;BME280;57706;56.326;43.882;2023-08-30T07:31:49;100456.44;;;51.86;6.70
70302;BME280;57706;56.326;43.882;2023-08-30T07:34:18;100456.16;;;52.33;7.02
70302;BME280;57706;56.326;43.882;2023-08-30T07:36:44;100449.97;;;51.89;7.26
70302;BME280;57706;56.326;43.882;2023-08-30T07:39:10;100449.19;;;52.37;6.32
70302;BME280;57706;56.326;43.882;2023-08-30T07:41:36;100446.06;;;52.70;6.11
70302;BME280;57706;56.326;43.882;2023-08-30T07:44:01;100448.59;;;53.00;6.73
70302;BME280;57706;56.326;43.882;2023-08-30T07:46:28;100446.69;;;53.10;5.77
70302;BME280;57706;56.326;43.882;2023-08-30T07:48:54;100445.34;;;53.02;5.58
70302;BME280;57706;56.326;43.882;2023-08-30T07:51:21;100450.81;;;53.28;5.83
70302;BME280;57706;56.326;43.882;2023-08-30T07:53:47;100451.53;;;51.90;5.95
70302;BME280;57706;56.326;43.882;2023-08-30T07:56:13;100442.00;;;51.62;6.34
70302;BME280;57706;56.326;43.882;2023-08-30T07:58:40;100436.44;;;50.60;7.08
70302;BME280;57706;56.326;43.882;2023-08-30T08:01:08;100433.03;;;52.19;6.28
70302;BME280;57706;56.326;43.882;2023-08-30T08:03:33;100423.38;;;53.00;6.27
70302;BME280;57706;56.326;43.882;2023-08-30T08:05:59;100413.25;;;53.66;5.98
70302;BME280;57706;56.326;43.882;2023-08-30T08:08:25;100421.16;;;53.58;5.39
70302;BME280;57706;56.326;43.882;2023-08-30T08:10:51;100407.13;;;52.50;6.43
70302;BME280;57706;56.326;43.882;2023-08-30T08:13:17;100414.88;;;53.86;5.71
70302;BME280;57706;56.326;43.882;2023-08-30T08:15:43;100417.75;;;54.23;5.32
70302;BME280;57706;56.326;43.882;2023-08-30T08:18:09;100415.03;;;54.94;5.03
70302;BME280;57706;56.326;43.882;2023-08-30T08:20:35;100417.53;;;55.11;5.07
70302;BME280;57706;56.326;43.882;2023-08-30T08:23:03;100420.03;;;54.90;5.04
70302;BME280;57706;56.326;43.882;2023-08-30T08:25:29;100422.81;;;50.79;7.05
70302;BME280;57706;56.326;43.882;2023-08-30T08:27:55;100404.59;;;54.01;5.60
70302;BME280;57706;56.326;43.882;2023-08-30T08:30:20;100426.50;;;55.24;4.75
70302;BME280;57706;56.326;43.882;2023-08-30T08:32:47;100416.56;;;55.81;4.71
70302;BME280;57706;56.326;43.882;2023-08-30T08:35:15;100412.53;;;57.42;4.01
70302;BME280;57706;56.326;43.882;2023-08-30T08:37:41;100409.63;;;54.44;4.76
70302;BME280;57706;56.326;43.882;2023-08-30T08:40:08;100410.88;;;48.17;7.56
70302;BME280;57706;56.326;43.882;2023-08-30T08:42:35;100404.97;;;44.99;9.41
70302;BME280;57706;56.326;43.882;2023-08-30T08:45:03;100412.19;;;47.19;8.41
70302;BME280;57706;56.326;43.882;2023-08-30T08:47:34;100401.69;;;51.59;6.37
70302;BME280;57706;56.326;43.882;2023-08-30T08:50:00;100412.88;;;54.70;5.30
70302;BME280;57706;56.326;43.882;2023-08-30T08:52:32;100406.63;;;54.85;5.15
70302;BME280;57706;56.326;43.882;2023-08-30T08:54:59;100403.91;;;55.52;4.97
70302;BME280;57706;56.326;43.882;2023-08-30T08:57:26;100409.78;;;54.40;5.08
70302;BME280;57706;56.326;43.882;2023-08-30T08:59:55;100415.72;;;54.80;5.19
70302;BME280;57706;56.326;43.882;2023-08-30T09:02:22;100411.34;;;54.22;5.44
70302;BME280;57706;56.326;43.882;2023-08-30T09:04:49;100409.16;;;56.48;4.74
70302;BME280;57706;56.326;43.882;2023-08-30T09:07:15;100414.13;;;55.65;4.67
70302;BME280;57706;56.326;43.882;2023-08-30T09:09:41;100413.28;;;56.77;4.21
70302;BME280;57706;56.326;43.882;2023-08-30T09:12:07;100409.22;;;55.99;4.69
70302;BME280;57706;56.326;43.882;2023-08-30T09:14:32;100397.59;;;56.31;4.53
70302;BME280;57706;56.326;43.882;2023-08-30T09:16:59;100411.94;;;54.73;5.20
70302;BME280;57706;56.326;43.882;2023-08-30T09:19:27;100408.47;;;54.97;5.27
70302;BME280;57706;56.326;43.882;2023-08-30T09:21:53;100404.09;;;55.39;4.77
70302;BME280;57706;56.326;43.882;2023-08-30T09:24:19;100412.81;;;56.24;4.95
70302;BME280;57706;56.326;43.882;2023-08-30T09:26:52;100411.81;;;55.88;4.70
70302;BME280;57706;56.326;43.882;2023-08-30T09:29:20;100403.06;;;56.64;4.36
70302;BME280;57706;56.326;43.882;2023-08-30T09:31:51;100400.16;;;56.74;4.75
70302;BME280;57706;56.326;43.882;2023-08-30T09:34:24;100399.59;;;56.15;4.49
70302;BME280;57706;56.326;43.882;2023-08-30T09:36:54;100394.41;;;56.68;4.73
70302;BME280;57706;56.326;43.882;2023-08-30T09:39:21;100402.88;;;56.14;5.22
70302;BME280;57706;56.326;43.882;2023-08-30T09:41:48;100389.72;;;56.50;4.78
70302;BME280;57706;56.326;43.882;2023-08-30T09:44:16;100398.63;;;50.09;7.45
70302;BME280;57706;56.326;43.882;2023-08-30T09:46:45;100399.94;;;43.14;11.85
70302;BME280;57706;56.326;43.882;2023-08-30T09:49:12;100398.41;;;42.64;12.34
70302;BME280;57706;56.326;43.882;2023-08-30T09:51:41;100404.97;;;48.35;8.41
70302;BME280;57706;56.326;43.882;2023-08-30T09:54:17;100402.78;;;50.80;7.61
70302;BME280;57706;56.326;43.882;2023-08-30T09:56:44;100402.41;;;52.25;6.92
70302;BME280;57706;56.326;43.882;2023-08-30T09:59:12;100394.78;;;52.61;6.77
70302;BME280;57706;56.326;43.882;2023-08-30T10:01:42;100398.25;;;53.60;6.06
70302;BME280;57706;56.326;43.882;2023-08-30T10:04:10;100398.06;;;55.22;5.40
70302;BME280;57706;56.326;43.882;2023-08-30T10:06:38;100401.47;;;51.54;6.93
70302;BME280;57706;56.326;43.882;2023-08-30T10:09:06;100396.53;;;49.80;7.82
70302;BME280;57706;56.326;43.882;2023-08-30T10:11:38;100396.28;;;49.91;8.16
70302;BME280;57706;56.326;43.882;2023-08-30T10:14:06;100389.06;;;50.86;7.30
70302;BME280;57706;56.326;43.882;2023-08-30T10:16:46;100379.38;;;52.65;6.32
70302;BME280;57706;56.326;43.882;2023-08-30T10:19:28;100374.31;;;53.36;6.34
70302;BME280;57706;56.326;43.882;2023-08-30T10:22:05;100385.44;;;54.37;5.77
70302;BME280;57706;56.326;43.882;2023-08-30T10:24:41;100388.94;;;54.94;5.66
70302;BME280;57706;56.326;43.882;2023-08-30T10:27:09;100390.84;;;55.30;5.64
70302;BME280;57706;56.326;43.882;2023-08-30T10:29:37;100393.59;;;55.98;5.48
70302;BME280;57706;56.326;43.882;2023-08-30T10:32:06;100395.22;;;55.90;5.12
70302;BME280;57706;56.326;43.882;2023-08-30T10:34:36;100392.88;;;54.87;5.48
70302;BME280;57706;56.326;43.882;2023-08-30T10:37:05;100399.06;;;53.60;5.88
70302;BME280;57706;56.326;43.882;2023-08-30T10:39:36;100396.81;;;53.46;5.86
70302;BME280;57706;56.326;43.882;2023-08-30T10:42:16;100392.72;;;51.90;7.12
70302;BME280;57706;56.326;43.882;2023-08-30T10:44:57;100386.69;;;52.63;6.41
70302;BME280;57706;56.326;43.882;2023-08-30T10:47:31;100395.50;;;53.28;6.38
70302;BME280;57706;56.326;43.882;2023-08-30T10:49:58;100386.53;;;52.89;6.52
70302;BME280;57706;56.326;43.882;2023-08-30T10:52:26;100386.94;;;53.82;5.43
70302;BME280;57706;56.326;43.882;2023-08-30T10:55:14;100381.16;;;53.04;5.97
70302;BME280;57706;56.326;43.882;2023-08-30T10:57:45;100384.59;;;52.54;6.21
70302;BME280;57706;56.326;43.882;2023-08-30T11:00:19;100399.72;;;52.56;6.91
70302;BME280;57706;56.326;43.882;2023-08-30T11:02:48;100396.59;;;52.77;6.53
70302;BME280;57706;56.326;43.882;2023-08-30T11:05:20;100396.72;;;52.02;7.28
70302;BME280;57706;56.326;43.882;2023-08-30T11:07:46;100400.56;;;52.89;6.98
70302;BME280;57706;56.326;43.882;2023-08-30T11:10:14;100399.94;;;54.17;5.92
70302;BME280;57706;56.326;43.882;2023-08-30T11:12:41;100408.88;;;54.53;5.65
70302;BME280;57706;56.326;43.882;2023-08-30T11:15:09;100405.97;;;54.90;5.74
70302;BME280;57706;56.326;43.882;2023-08-30T11:17:35;100387.31;;;53.11;6.50
70302;BME280;57706;56.326;43.882;2023-08-30T11:20:08;100386.09;;;50.77;7.23
70302;BME280;57706;56.326;43.882;2023-08-30T11:22:40;100392.03;;;51.99;7.12
70302;BME280;57706;56.326;43.882;2023-08-30T11:25:11;100390.91;;;52.45;6.18
70302;BME280;57706;56.326;43.882;2023-08-30T11:27:40;100385.63;;;53.55;5.86
70302;BME280;57706;56.326;43.882;2023-08-30T11:30:08;100383.31;;;51.19;7.43
70302;BME280;57706;56.326;43.882;2023-08-30T11:32:35;100386.50;;;50.92;7.17
70302;BME280;57706;56.326;43.882;2023-08-30T11:35:02;100385.53;;;50.39;7.55
70302;BME280;57706;56.326;43.882;2023-08-30T11:37:33;100386.56;;;50.46;7.67
70302;BME280;57706;56.326;43.882;2023-08-30T11:40:02;100386.91;;;51.85;6.91
70302;BME280;57706;56.326;43.882;2023-08-30T11:42:33;100383.59;;;49.53;8.06
70302;BME280;57706;56.326;43.882;2023-08-30T11:45:00;100395.13;;;50.38;7.61
70302;BME280;57706;56.326;43.882;2023-08-30T11:47:28;100387.06;;;51.00;7.63
70302;BME280;57706;56.326;43.882;2023-08-30T11:49:55;100390.69;;;51.91;6.73
70302;BME280;57706;56.326;43.882;2023-08-30T11:52:22;100391.88;;;52.51;6.71
70302;BME280;57706;56.326;43.882;2023-08-30T11:54:50;100372.41;;;51.99;6.89
70302;BME280;57706;56.326;43.882;2023-08-30T11:57:16;100377.25;;;51.08;7.33
70302;BME280;57706;56.326;43.882;2023-08-30T11:59:42;100373.97;;;52.13;6.99
70302;BME280;57706;56.326;43.882;2023-08-30T12:02:08;100376.88;;;52.90;6.38
70302;BME280;57706;56.326;43.882;2023-08-30T12:04:45;100384.44;;;53.02;6.74
70302;BME280;57706;56.326;43.882;2023-08-30T12:07:24;100389.63;;;52.81;6.53
70302;BME280;57706;56.326;43.882;2023-08-30T12:09:51;100390.06;;;51.74;7.12
70302;BME280;57706;56.326;43.882;2023-08-30T12:12:17;100387.13;;;51.52;7.10
70302;BME280;57706;56.326;43.882;2023-08-30T12:14:42;100397.59;;;50.66;7.70
70302;BME280;57706;56.326;43.882;2023-08-30T12:17:08;100396.34;;;51.39;7.38
70302;BME280;57706;56.326;43.882;2023-08-30T12:19:37;100394.97;;;51.31;7.61
70302;BME280;57706;56.326;43.882;2023-08-30T12:22:06;100415.38;;;50.26;7.94
70302;BME280;57706;56.326;43.882;2023-08-30T12:24:46;100414.06;;;50.77;7.59
70302;BME280;57706;56.326;43.882;2023-08-30T12:27:13;100400.78;;;50.81;7.71
70302;BME280;57706;56.326;43.882;2023-08-30T12:29:39;100399.81;;;51.01;7.87
70302;BME280;57706;56.326;43.882;2023-08-30T12:32:07;100398.53;;;51.18;8.00
70302;BME280;57706;56.326;43.882;2023-08-30T12:34:33;100391.56;;;49.88;8.20
70302;BME280;57706;56.326;43.882;2023-08-30T12:36:59;100398.44;;;50.33;8.02
70302;BME280;57706;56.326;43.882;2023-08-30T12:39:25;100390.06;;;49.10;8.68
70302;BME280;57706;56.326;43.882;2023-08-30T12:41:51;100412.75;;;45.47;10.73
70302;BME280;57706;56.326;43.882;2023-08-30T12:44:17;100407.00;;;43.11;12.39
70302;BME280;57706;56.326;43.882;2023-08-30T12:46:43;100409.13;;;42.28;12.83
70302;BME280;57706;56.326;43.882;2023-08-30T12:49:08;100426.34;;;40.68;14.23
70302;BME280;57706;56.326;43.882;2023-08-30T12:51:34;100421.63;;;39.07;15.41